sensor_id;sensor_type;location;lat;lon;timestamp;pressure;altitude;pressure_sealevel;temperature;humidity
6393;BME280;3229;42.674;23.282;2023-04-23T00:00:16;94578.19;;;13.89;54.61
6393;BME280;3229;42.674;23.282;2023-04-23T00:02:47;94580.94;;;13.87;54.70
6393;BME280;3229;42.674;23.282;2023-04-23T00:05:27;94576.91;;;13.85;54.71
6393;BME280;3229;42.674;23.282;2023-04-23T00:07:55;94576.28;;;13.83;54.75
6393;BME280;3229;42.674;23.282;2023-04-23T00:10:28;94579.16;;;13.79;54.83
6393;BME280;3229;42.674;23.282;2023-04-23T00:12:57;94572.72;;;13.75;55.12
6393;BME280;3229;42.674;23.282;2023-04-23T00:15:25;94580.25;;;13.77;55.03
6393;BME280;3229;42.674;23.282;2023-04-23T00:17:52;94578.66;;;13.76;54.91
6393;BME280;3229;42.674;23.282;2023-04-23T00:20:19;94571.44;;;13.71;55.01
6393;BME280;3229;42.674;23.282;2023-04-23T00:22:46;94566.78;;;13.67;55.23
6393;BME280;3229;42.674;23.282;2023-04-23T00:25:13;94568.06;;;13.71;54.96
6393;BME280;3229;42.674;23.282;2023-04-23T00:27:41;94570.94;;;13.68;54.82
6393;BME280;3229;42.674;23.282;2023-04-23T00:30:09;94576.25;;;13.66;55.15
6393;BME280;3229;42.674;23.282;2023-04-23T00:32:41;94566.63;;;13.60;55.08
6393;BME280;3229;42.674;23.282;2023-04-23T00:35:09;94497.03;;;13.13;54.99
6393;BME280;3229;42.674;23.282;2023-04-23T00:37:36;94573.50;;;13.60;55.08
6393;BME280;3229;42.674;23.282;2023-04-23T00:40:03;94571.91;;;13.59;55.33
6393;BME280;3229;42.674;23.282;2023-04-23T00:42:31;94572.22;;;13.55;55.43
6393;BME280;3229;42.674;23.282;2023-04-23T00:44:59;94574.94;;;13.54;55.34
6393;BME280;3229;42.674;23.282;2023-04-23T00:47:28;94569.19;;;13.52;55.14
6393;BME280;3229;42.674;23.282;2023-04-23T00:49:57;94567.09;;;13.47;55.55
6393;BME280;3229;42.674;23.282;2023-04-23T00:52:25;94573.81;;;13.48;55.54
6393;BME280;3229;42.674;23.282;2023-04-23T00:54:54;94569.97;;;13.44;55.54
6393;BME280;3229;42.674;23.282;2023-04-23T00:57:22;94580.25;;;13.44;55.41
6393;BME280;3229;42.674;23.282;2023-04-23T00:59:49;94567.56;;;13.43;55.71
6393;BME280;3229;42.674;23.282;2023-04-23T01:02:18;94575.41;;;13.41;55.70
6393;BME280;3229;42.674;23.282;2023-04-23T01:04:47;94576.53;;;13.39;55.60
6393;BME280;3229;42.674;23.282;2023-04-23T01:07:15;94569.16;;;13.36;55.75
6393;BME280;3229;42.674;23.282;2023-04-23T01:09:43;94576.69;;;13.37;55.97
6393;BME280;3229;42.674;23.282;2023-04-23T01:12:09;94574.28;;;13.36;55.76
6393;BME280;3229;42.674;23.282;2023-04-23T01:14:37;94574.59;;;13.33;55.73
6393;BME280;3229;42.674;23.282;2023-04-23T01:17:04;94573.78;;;13.32;55.84
6393;BME280;3229;42.674;23.282;2023-04-23T01:19:34;94574.25;;;13.27;55.96
6393;BME280;3229;42.674;23.282;2023-04-23T01:22:01;94580.19;;;13.28;55.93
6393;BME280;3229;42.674;23.282;2023-04-23T01:24:29;94575.22;;;13.26;55.85
6393;BME280;3229;42.674;23.282;2023-04-23T01:26:57;94577.31;;;13.23;55.87
6393;BME280;3229;42.674;23.282;2023-04-23T01:29:25;94575.53;;;13.23;56.09
6393;BME280;3229;42.674;23.282;2023-04-23T01:31:53;94555.06;;;13.05;55.89
6393;BME280;3229;42.674;23.282;2023-04-23T01:34:20;94573.72;;;13.16;56.10
6393;BME280;3229;42.674;23.282;2023-04-23T01:36:47;94575.16;;;13.18;56.00
6393;BME280;3229;42.674;23.282;2023-04-23T01:39:15;94581.28;;;13.17;56.14
6393;BME280;3229;42.674;23.282;2023-04-23T01:41:44;94578.03;;;13.15;55.89
6393;BME280;3229;42.674;23.282;2023-04-23T01:44:11;94579.00;;;13.14;56.09
6393;BME280;3229;42.674;23.282;2023-04-23T01:46:38;94577.41;;;13.13;55.94
6393;BME280;3229;42.674;23.282;2023-04-23T01:49:06;94579.31;;;13.11;56.17
6393;BME280;3229;42.674;23.282;2023-04-23T01:51:33;94580.59;;;13.07;56.16
6393;BME280;3229;42.674;23.282;2023-04-23T01:54:01;94578.34;;;13.04;56.26
6393;BME280;3229;42.674;23.282;2023-04-23T01:56:28;94580.91;;;13.04;56.21
6393;BME280;3229;42.674;23.282;2023-04-23T01:59:01;94584.13;;;13.06;56.29
6393;BME280;3229;42.674;23.282;2023-04-23T02:01:41;94542.44;;;12.70;56.36
6393;BME280;3229;42.674;23.282;2023-04-23T02:04:09;94593.88;;;13.02;56.25
6393;BME280;3229;42.674;23.282;2023-04-23T02:06:37;94589.88;;;13.00;56.44
6393;BME280;3229;42.674;23.282;2023-04-23T02:09:04;94588.25;;;12.99;56.40
6393;BME280;3229;42.674;23.282;2023-04-23T02:11:31;94587.44;;;12.98;56.63
6393;BME280;3229;42.674;23.282;2023-04-23T02:13:57;94579.59;;;12.92;56.59
6393;BME280;3229;42.674;23.282;2023-04-23T02:16:26;94589.50;;;12.95;56.64
6393;BME280;3229;42.674;23.282;2023-04-23T02:18:52;94583.25;;;12.89;56.58
6393;BME280;3229;42.674;23.282;2023-04-23T02:21:19;94578.41;;;12.86;56.91
6393;BME280;3229;42.674;23.282;2023-04-23T02:23:47;94588.22;;;12.91;56.58
6393;BME280;3229;42.674;23.282;2023-04-23T02:26:14;94547.84;;;12.59;56.90
6393;BME280;3229;42.674;23.282;2023-04-23T02:28:41;94591.91;;;12.88;56.87
6393;BME280;3229;42.674;23.282;2023-04-23T02:31:07;94590.44;;;12.86;56.88
6393;BME280;3229;42.674;23.282;2023-04-23T02:33:40;94593.97;;;12.85;56.91
6393;BME280;3229;42.674;23.282;2023-04-23T02:36:08;94595.91;;;12.83;57.21
6393;BME280;3229;42.674;23.282;2023-04-23T02:38:37;94593.47;;;12.81;56.94
6393;BME280;3229;42.674;23.282;2023-04-23T02:41:06;94588.50;;;12.79;57.07
6393;BME280;3229;42.674;23.282;2023-04-23T02:43:32;94593.63;;;12.79;57.10
6393;BME280;3229;42.674;23.282;2023-04-23T02:45:59;94585.72;;;12.73;57.15
6393;BME280;3229;42.674;23.282;2023-04-23T02:48:36;94590.72;;;12.74;57.15
6393;BME280;3229;42.674;23.282;2023-04-23T02:51:03;94595.88;;;12.74;57.19
6393;BME280;3229;42.674;23.282;2023-04-23T02:53:30;94597.75;;;12.72;57.32
6393;BME280;3229;42.674;23.282;2023-04-23T02:55:57;94596.97;;;12.72;57.22
6393;BME280;3229;42.674;23.282;2023-04-23T02:58:24;94577.31;;;12.54;57.52
6393;BME280;3229;42.674;23.282;2023-04-23T03:00:51;94599.81;;;12.69;57.31
6393;BME280;3229;42.674;23.282;2023-04-23T03:03:19;94598.53;;;12.65;57.45
6393;BME280;3229;42.674;23.282;2023-04-23T03:05:47;94604.31;;;12.67;57.31
6393;BME280;3229;42.674;23.282;2023-04-23T03:08:14;94601.91;;;12.65;57.40
6393;BME280;3229;42.674;23.282;2023-04-23T03:10:41;94588.88;;;12.59;57.52
6393;BME280;3229;42.674;23.282;2023-04-23T03:13:08;94609.91;;;12.62;57.49
6393;BME280;3229;42.674;23.282;2023-04-23T03:15:35;94599.16;;;12.59;57.54
6393;BME280;3229;42.674;23.282;2023-04-23T03:18:04;94597.84;;;12.54;57.56
6393;BME280;3229;42.674;23.282;2023-04-23T03:20:32;94605.06;;;12.59;57.53
6393;BME280;3229;42.674;23.282;2023-04-23T03:23:00;94605.38;;;12.56;57.57
6393;BME280;3229;42.674;23.282;2023-04-23T03:25:28;94605.22;;;12.58;57.56
6393;BME280;3229;42.674;23.282;2023-04-23T03:27:54;94607.94;;;12.56;57.62
6393;BME280;3229;42.674;23.282;2023-04-23T03:30:21;94610.50;;;12.56;57.59
6393;BME280;3229;42.674;23.282;2023-04-23T03:32:49;94591.34;;;12.42;57.35
6393;BME280;3229;42.674;23.282;2023-04-23T03:35:15;94612.94;;;12.58;57.62
6393;BME280;3229;42.674;23.282;2023-04-23T03:37:42;94617.09;;;12.59;57.61
6393;BME280;3229;42.674;23.282;2023-04-23T03:40:11;94621.13;;;12.61;57.43
6393;BME280;3229;42.674;23.282;2023-04-23T03:42:38;94615.03;;;12.62;57.28
6393;BME280;3229;42.674;23.282;2023-04-23T03:45:05;94610.72;;;12.63;57.49
6393;BME280;3229;42.674;23.282;2023-04-23T03:47:32;94617.16;;;12.67;57.66
6393;BME280;3229;42.674;23.282;2023-04-23T03:49:59;94614.28;;;12.70;57.53
6393;BME280;3229;42.674;23.282;2023-04-23T03:52:26;94614.75;;;12.73;57.47
6393;BME280;3229;42.674;23.282;2023-04-23T03:54:53;94618.63;;;12.77;57.37
6393;BME280;3229;42.674;23.282;2023-04-23T03:57:21;94612.88;;;12.75;57.26
6393;BME280;3229;42.674;23.282;2023-04-23T03:59:48;94622.72;;;12.88;57.29
6393;BME280;3229;42.674;23.282;2023-04-23T04:02:15;94620.31;;;12.87;57.20
6393;BME280;3229;42.674;23.282;2023-04-23T04:04:43;94620.69;;;13.00;57.19
6393;BME280;3229;42.674;23.282;2023-04-23T04:07:11;94620.84;;;13.06;57.22
6393;BME280;3229;42.674;23.282;2023-04-23T04:09:40;94614.97;;;13.14;56.79
6393;BME280;3229;42.674;23.282;2023-04-23T04:12:07;94625.41;;;13.21;56.75
6393;BME280;3229;42.674;23.282;2023-04-23T04:14:36;94616.44;;;13.25;56.66
6393;BME280;3229;42.674;23.282;2023-04-23T04:17:03;94629.81;;;13.37;56.70
6393;BME280;3229;42.674;23.282;2023-04-23T04:19:31;94628.38;;;13.42;56.49
6393;BME280;3229;42.674;23.282;2023-04-23T04:21:58;94609.94;;;13.39;56.31
6393;BME280;3229;42.674;23.282;2023-04-23T04:24:28;94630.19;;;13.58;56.10
6393;BME280;3229;42.674;23.282;2023-04-23T04:26:57;94630.84;;;13.68;56.18
6393;BME280;3229;42.674;23.282;2023-04-23T04:29:24;94639.88;;;13.80;56.06
6393;BME280;3229;42.674;23.282;2023-04-23T04:31:53;94631.38;;;14.04;55.54
6393;BME280;3229;42.674;23.282;2023-04-23T04:34:21;94640.38;;;14.41;55.04
6393;BME280;3229;42.674;23.282;2023-04-23T04:36:50;94642.75;;;14.84;54.32
6393;BME280;3229;42.674;23.282;2023-04-23T04:39:18;94645.50;;;15.29;54.13
6393;BME280;3229;42.674;23.282;2023-04-23T04:41:45;94642.50;;;15.80;53.60
6393;BME280;3229;42.674;23.282;2023-04-23T04:44:12;94647.63;;;16.34;53.15
6393;BME280;3229;42.674;23.282;2023-04-23T04:46:41;94648.88;;;16.91;52.42
6393;BME280;3229;42.674;23.282;2023-04-23T04:49:09;94639.66;;;17.47;51.73
6393;BME280;3229;42.674;23.282;2023-04-23T04:51:37;94647.53;;;18.12;51.21
6393;BME280;3229;42.674;23.282;2023-04-23T04:54:04;94651.00;;;18.68;50.39
6393;BME280;3229;42.674;23.282;2023-04-23T04:56:32;94656.78;;;19.26;49.77
6393;BME280;3229;42.674;23.282;2023-04-23T04:58:59;94652.81;;;19.85;49.07
6393;BME280;3229;42.674;23.282;2023-04-23T05:01:27;94654.94;;;20.49;48.33
6393;BME280;3229;42.674;23.282;2023-04-23T05:03:54;94663.72;;;21.08;47.41
6393;BME280;3229;42.674;23.282;2023-04-23T05:06:24;94646.78;;;21.57;46.88
6393;BME280;3229;42.674;23.282;2023-04-23T05:08:53;94660.31;;;22.17;46.14
6393;BME280;3229;42.674;23.282;2023-04-23T05:11:20;94657.78;;;22.61;45.52
6393;BME280;3229;42.674;23.282;2023-04-23T05:13:47;94647.50;;;22.97;44.72
6393;BME280;3229;42.674;23.282;2023-04-23T05:16:14;94667.72;;;23.57;44.14
6393;BME280;3229;42.674;23.282;2023-04-23T05:18:41;94665.84;;;24.13;43.62
6393;BME280;3229;42.674;23.282;2023-04-23T05:21:08;94661.09;;;24.63;43.35
6393;BME280;3229;42.674;23.282;2023-04-23T05:23:36;94660.56;;;25.08;42.83
6393;BME280;3229;42.674;23.282;2023-04-23T05:26:03;94661.81;;;25.41;42.10
6393;BME280;3229;42.674;23.282;2023-04-23T05:28:30;94664.66;;;25.91;41.69
6393;BME280;3229;42.674;23.282;2023-04-23T05:30:58;94669.09;;;26.48;40.77
6393;BME280;3229;42.674;23.282;2023-04-23T05:33:25;94663.53;;;27.12;40.45
6393;BME280;3229;42.674;23.282;2023-04-23T05:35:57;94672.53;;;27.77;40.15
6393;BME280;3229;42.674;23.282;2023-04-23T05:38:23;94672.09;;;28.34;39.27
6393;BME280;3229;42.674;23.282;2023-04-23T05:40:53;94667.22;;;28.80;38.57
6393;BME280;3229;42.674;23.282;2023-04-23T05:43:20;94671.44;;;29.13;38.42
6393;BME280;3229;42.674;23.282;2023-04-23T05:45:48;94682.78;;;29.56;38.08
6393;BME280;3229;42.674;23.282;2023-04-23T05:48:15;94676.84;;;29.96;37.25
6393;BME280;3229;42.674;23.282;2023-04-23T05:50:42;94675.13;;;30.47;37.19
6393;BME280;3229;42.674;23.282;2023-04-23T05:53:09;94686.03;;;30.97;36.52
6393;BME280;3229;42.674;23.282;2023-04-23T05:55:36;94679.38;;;31.40;36.42
6393;BME280;3229;42.674;23.282;2023-04-23T05:58:05;94684.25;;;31.78;35.96
6393;BME280;3229;42.674;23.282;2023-04-23T06:00:32;94690.03;;;32.00;35.61
6393;BME280;3229;42.674;23.282;2023-04-23T06:02:59;94688.09;;;32.11;35.60
6393;BME280;3229;42.674;23.282;2023-04-23T06:05:26;94688.34;;;32.14;35.02
6393;BME280;3229;42.674;23.282;2023-04-23T06:07:53;94687.25;;;32.20;34.93
6393;BME280;3229;42.674;23.282;2023-04-23T06:10:20;94694.09;;;32.27;35.30
6393;BME280;3229;42.674;23.282;2023-04-23T06:12:47;94683.19;;;32.33;34.82
6393;BME280;3229;42.674;23.282;2023-04-23T06:15:15;94687.09;;;32.51;34.74
6393;BME280;3229;42.674;23.282;2023-04-23T06:17:42;94687.44;;;32.79;34.51
6393;BME280;3229;42.674;23.282;2023-04-23T06:20:08;94681.84;;;33.14;34.37
6393;BME280;3229;42.674;23.282;2023-04-23T06:22:36;94683.81;;;33.57;34.13
6393;BME280;3229;42.674;23.282;2023-04-23T06:25:03;94681.44;;;34.03;33.90
6393;BME280;3229;42.674;23.282;2023-04-23T06:27:30;94680.56;;;34.45;33.72
6393;BME280;3229;42.674;23.282;2023-04-23T06:29:58;94687.72;;;34.83;33.19
6393;BME280;3229;42.674;23.282;2023-04-23T06:32:26;94682.72;;;35.14;32.89
6393;BME280;3229;42.674;23.282;2023-04-23T06:34:53;94684.16;;;35.53;32.76
6393;BME280;3229;42.674;23.282;2023-04-23T06:37:19;94686.53;;;35.96;32.46
6393;BME280;3229;42.674;23.282;2023-04-23T06:39:46;94687.72;;;36.39;32.28
6393;BME280;3229;42.674;23.282;2023-04-23T06:42:13;94691.84;;;36.82;31.96
6393;BME280;3229;42.674;23.282;2023-04-23T06:44:40;94690.56;;;37.24;31.53
6393;BME280;3229;42.674;23.282;2023-04-23T06:47:07;94683.09;;;37.66;31.20
6393;BME280;3229;42.674;23.282;2023-04-23T06:49:35;94679.09;;;38.03;30.69
6393;BME280;3229;42.674;23.282;2023-04-23T06:52:02;94680.75;;;38.39;30.80
6393;BME280;3229;42.674;23.282;2023-04-23T06:54:28;94679.47;;;38.71;30.49
6393;BME280;3229;42.674;23.282;2023-04-23T06:56:55;94676.94;;;39.01;30.26
6393;BME280;3229;42.674;23.282;2023-04-23T06:59:22;94677.50;;;39.32;30.12
6393;BME280;3229;42.674;23.282;2023-04-23T07:01:49;94679.31;;;39.58;29.76
6393;BME280;3229;42.674;23.282;2023-04-23T07:04:16;94675.75;;;39.83;29.74
6393;BME280;3229;42.674;23.282;2023-04-23T07:06:44;94683.16;;;40.07;29.63
6393;BME280;3229;42.674;23.282;2023-04-23T07:09:10;94677.81;;;40.28;29.81
6393;BME280;3229;42.674;23.282;2023-04-23T07:11:38;94674.00;;;40.38;29.41
6393;BME280;3229;42.674;23.282;2023-04-23T07:14:05;94689.13;;;40.64;29.13
6393;BME280;3229;42.674;23.282;2023-04-23T07:16:31;94683.13;;;40.79;29.02
6393;BME280;3229;42.674;23.282;2023-04-23T07:18:59;94684.09;;;40.95;29.09
6393;BME280;3229;42.674;23.282;2023-04-23T07:21:29;94688.53;;;41.12;28.57
6393;BME280;3229;42.674;23.282;2023-04-23T07:23:59;94682.50;;;41.27;28.56
6393;BME280;3229;42.674;23.282;2023-04-23T07:26:31;94684.44;;;41.39;28.66
6393;BME280;3229;42.674;23.282;2023-04-23T07:28:58;94686.38;;;41.51;28.09
6393;BME280;3229;42.674;23.282;2023-04-23T07:31:25;94685.56;;;41.63;28.37
6393;BME280;3229;42.674;23.282;2023-04-23T07:33:54;94685.03;;;41.69;28.13
6393;BME280;3229;42.674;23.282;2023-04-23T07:36:20;94680.66;;;41.77;28.41
6393;BME280;3229;42.674;23.282;2023-04-23T07:38:47;94658.28;;;41.73;28.40
6393;BME280;3229;42.674;23.282;2023-04-23T07:41:16;94676.41;;;41.88;28.33
6393;BME280;3229;42.674;23.282;2023-04-23T07:43:43;94677.00;;;41.94;27.80
6393;BME280;3229;42.674;23.282;2023-04-23T07:46:10;94678.56;;;41.95;28.25
6393;BME280;3229;42.674;23.282;2023-04-23T07:48:37;94673.97;;;41.95;28.01
6393;BME280;3229;42.674;23.282;2023-04-23T07:51:04;94673.28;;;41.98;28.12
6393;BME280;3229;42.674;23.282;2023-04-23T07:53:31;94679.09;;;42.00;27.42
6393;BME280;3229;42.674;23.282;2023-04-23T07:55:58;94682.56;;;42.01;27.32
6393;BME280;3229;42.674;23.282;2023-04-23T07:58:26;94676.31;;;41.72;27.98
6393;BME280;3229;42.674;23.282;2023-04-23T08:00:53;94688.78;;;41.31;28.04
6393;BME280;3229;42.674;23.282;2023-04-23T08:03:19;94679.69;;;41.11;27.74
6393;BME280;3229;42.674;23.282;2023-04-23T08:05:47;94675.41;;;40.77;28.29
6393;BME280;3229;42.674;23.282;2023-04-23T08:08:14;94678.16;;;40.27;28.95
6393;BME280;3229;42.674;23.282;2023-04-23T08:10:41;94679.78;;;39.89;29.12
6393;BME280;3229;42.674;23.282;2023-04-23T08:13:07;94672.00;;;39.76;29.09
6393;BME280;3229;42.674;23.282;2023-04-23T08:15:36;94670.84;;;39.47;28.66
6393;BME280;3229;42.674;23.282;2023-04-23T08:18:04;94667.16;;;39.13;29.31
6393;BME280;3229;42.674;23.282;2023-04-23T08:20:31;94668.75;;;39.06;28.80
6393;BME280;3229;42.674;23.282;2023-04-23T08:22:58;94673.16;;;39.02;28.60
6393;BME280;3229;42.674;23.282;2023-04-23T08:25:25;94675.22;;;39.05;28.83
6393;BME280;3229;42.674;23.282;2023-04-23T08:27:51;94667.22;;;38.87;28.50
6393;BME280;3229;42.674;23.282;2023-04-23T08:30:18;94665.50;;;38.65;28.66
6393;BME280;3229;42.674;23.282;2023-04-23T08:32:48;94657.50;;;38.39;29.16
6393;BME280;3229;42.674;23.282;2023-04-23T08:35:16;94656.16;;;37.94;29.34
6393;BME280;3229;42.674;23.282;2023-04-23T08:37:42;94652.66;;;37.36;29.57
6393;BME280;3229;42.674;23.282;2023-04-23T08:40:09;94650.91;;;36.78;29.47
6393;BME280;3229;42.674;23.282;2023-04-23T08:42:41;94651.16;;;36.31;29.85
6393;BME280;3229;42.674;23.282;2023-04-23T08:45:09;94562.19;;;35.60;29.99
6393;BME280;3229;42.674;23.282;2023-04-23T08:47:38;94650.34;;;35.94;30.00
6393;BME280;3229;42.674;23.282;2023-04-23T08:50:09;94642.22;;;35.50;30.14
6393;BME280;3229;42.674;23.282;2023-04-23T08:52:39;94646.88;;;34.98;30.40
6393;BME280;3229;42.674;23.282;2023-04-23T08:55:07;94639.41;;;34.48;30.42
6393;BME280;3229;42.674;23.282;2023-04-23T08:57:36;94627.06;;;34.01;30.42
6393;BME280;3229;42.674;23.282;2023-04-23T09:00:05;94634.44;;;33.61;31.02
6393;BME280;3229;42.674;23.282;2023-04-23T09:02:33;94607.97;;;33.32;31.00
6393;BME280;3229;42.674;23.282;2023-04-23T09:05:01;94627.47;;;33.41;31.05
6393;BME280;3229;42.674;23.282;2023-04-23T09:07:30;94626.94;;;33.44;30.97
6393;BME280;3229;42.674;23.282;2023-04-23T09:09:57;94619.03;;;33.39;30.78
6393;BME280;3229;42.674;23.282;2023-04-23T09:12:24;94630.31;;;33.26;30.63
6393;BME280;3229;42.674;23.282;2023-04-23T09:14:51;94629.03;;;32.94;30.97
6393;BME280;3229;42.674;23.282;2023-04-23T09:17:18;94633.78;;;32.63;31.20
6393;BME280;3229;42.674;23.282;2023-04-23T09:19:45;94606.75;;;32.27;31.18
6393;BME280;3229;42.674;23.282;2023-04-23T09:22:17;94608.72;;;32.11;31.25
6393;BME280;3229;42.674;23.282;2023-04-23T09:25:02;94620.91;;;32.07;31.21
6393;BME280;3229;42.674;23.282;2023-04-23T09:27:30;94620.41;;;32.05;31.37
6393;BME280;3229;42.674;23.282;2023-04-23T09:29:57;94614.34;;;31.99;31.11
6393;BME280;3229;42.674;23.282;2023-04-23T09:32:30;94618.94;;;31.83;31.45
6393;BME280;3229;42.674;23.282;2023-04-23T09:34:57;94612.94;;;31.57;31.14
6393;BME280;3229;42.674;23.282;2023-04-23T09:37:24;94606.97;;;31.31;31.52
6393;BME280;3229;42.674;23.282;2023-04-23T09:39:51;94599.59;;;31.18;31.58
6393;BME280;3229;42.674;23.282;2023-04-23T09:42:23;94602.50;;;31.11;31.39
6393;BME280;3229;42.674;23.282;2023-04-23T09:44:55;94593.03;;;31.05;31.71
6393;BME280;3229;42.674;23.282;2023-04-23T09:47:22;94594.06;;;30.99;31.72
6393;BME280;3229;42.674;23.282;2023-04-23T09:49:49;94586.69;;;30.91;31.93
6393;BME280;3229;42.674;23.282;2023-04-23T09:52:16;94585.66;;;30.82;31.63
6393;BME280;3229;42.674;23.282;2023-04-23T09:54:43;94583.56;;;30.73;31.62
6393;BME280;3229;42.674;23.282;2023-04-23T09:57:12;94576.69;;;30.62;31.48
6393;BME280;3229;42.674;23.282;2023-04-23T09:59:43;94576.97;;;30.51;31.78
6393;BME280;3229;42.674;23.282;2023-04-23T10:02:09;94580.91;;;30.43;31.41
6393;BME280;3229;42.674;23.282;2023-04-23T10:04:40;94585.13;;;30.34;31.63
6393;BME280;3229;42.674;23.282;2023-04-23T10:07:07;94564.56;;;30.20;31.82
6393;BME280;3229;42.674;23.282;2023-04-23T10:09:39;94566.41;;;30.15;31.46
6393;BME280;3229;42.674;23.282;2023-04-23T10:12:07;94566.38;;;30.10;31.58
6393;BME280;3229;42.674;23.282;2023-04-23T10:14:35;94567.41;;;30.04;31.73
6393;BME280;3229;42.674;23.282;2023-04-23T10:17:06;94566.34;;;29.89;32.10
6393;BME280;3229;42.674;23.282;2023-04-23T10:19:33;94556.84;;;29.78;31.78
6393;BME280;3229;42.674;23.282;2023-04-23T10:22:04;94532.81;;;29.59;31.95
6393;BME280;3229;42.674;23.282;2023-04-23T10:24:33;94552.56;;;29.62;31.73
6393;BME280;3229;42.674;23.282;2023-04-23T10:27:02;94540.13;;;29.47;31.77
6393;BME280;3229;42.674;23.282;2023-04-23T10:29:32;94541.69;;;29.38;31.79
6393;BME280;3229;42.674;23.282;2023-04-23T10:32:01;94537.69;;;29.30;31.84
6393;BME280;3229;42.674;23.282;2023-04-23T10:34:30;94531.34;;;29.21;31.94
6393;BME280;3229;42.674;23.282;2023-04-23T10:36:58;94529.22;;;29.13;31.98
6393;BME280;3229;42.674;23.282;2023-04-23T10:39:27;94520.75;;;29.06;32.32
6393;BME280;3229;42.674;23.282;2023-04-23T10:41:56;94527.00;;;28.94;31.95
6393;BME280;3229;42.674;23.282;2023-04-23T10:44:31;94521.66;;;28.84;32.49
6393;BME280;3229;42.674;23.282;2023-04-23T10:46:58;94525.03;;;28.69;32.21
6393;BME280;3229;42.674;23.282;2023-04-23T10:49:31;94520.75;;;28.58;32.34
6393;BME280;3229;42.674;23.282;2023-04-23T10:51:58;94512.53;;;28.49;32.28
6393;BME280;3229;42.674;23.282;2023-04-23T10:54:28;94513.56;;;28.43;32.52
6393;BME280;3229;42.674;23.282;2023-04-23T10:56:58;94506.13;;;28.35;32.01
6393;BME280;3229;42.674;23.282;2023-04-23T10:59:26;94469.38;;;28.08;32.14
6393;BME280;3229;42.674;23.282;2023-04-23T11:01:55;94477.22;;;28.03;32.04
6393;BME280;3229;42.674;23.282;2023-04-23T11:04:24;94491.97;;;28.09;32.40
6393;BME280;3229;42.674;23.282;2023-04-23T11:06:55;94486.66;;;27.99;32.42
6393;BME280;3229;42.674;23.282;2023-04-23T11:09:29;94486.81;;;27.87;32.13
6393;BME280;3229;42.674;23.282;2023-04-23T11:11:57;94479.88;;;27.76;32.27
6393;BME280;3229;42.674;23.282;2023-04-23T11:14:36;94477.41;;;27.64;32.80
6393;BME280;3229;42.674;23.282;2023-04-23T11:17:03;94478.63;;;27.57;32.76
6393;BME280;3229;42.674;23.282;2023-04-23T11:19:34;94471.19;;;27.48;32.93
6393;BME280;3229;42.674;23.282;2023-04-23T11:22:04;94468.47;;;27.38;32.57
6393;BME280;3229;42.674;23.282;2023-04-23T11:24:33;94471.28;;;27.32;32.77
6393;BME280;3229;42.674;23.282;2023-04-23T11:27:07;94457.19;;;27.16;32.77
6393;BME280;3229;42.674;23.282;2023-04-23T11:29:35;94467.44;;;27.12;32.60
6393;BME280;3229;42.674;23.282;2023-04-23T11:32:02;94464.16;;;27.05;32.72
6393;BME280;3229;42.674;23.282;2023-04-23T11:34:35;94460.13;;;26.97;32.43
6393;BME280;3229;42.674;23.282;2023-04-23T11:37:04;94460.56;;;26.89;32.69
6393;BME280;3229;42.674;23.282;2023-04-23T11:39:31;94459.97;;;26.82;33.01
6393;BME280;3229;42.674;23.282;2023-04-23T11:41:58;94459.09;;;26.76;32.50
6393;BME280;3229;42.674;23.282;2023-04-23T11:44:29;94459.81;;;26.72;32.63
6393;BME280;3229;42.674;23.282;2023-04-23T11:46:58;94420.16;;;26.46;32.66
6393;BME280;3229;42.674;23.282;2023-04-23T11:49:26;94454.16;;;26.58;32.43
6393;BME280;3229;42.674;23.282;2023-04-23T11:51:53;94450.44;;;26.54;32.66
6393;BME280;3229;42.674;23.282;2023-04-23T11:54:27;94444.31;;;26.48;32.73
6393;BME280;3229;42.674;23.282;2023-04-23T11:56:54;94440.81;;;26.43;32.76
6393;BME280;3229;42.674;23.282;2023-04-23T11:59:23;94438.09;;;26.38;32.71
6393;BME280;3229;42.674;23.282;2023-04-23T12:01:56;94432.88;;;26.38;32.64
6393;BME280;3229;42.674;23.282;2023-04-23T12:04:25;94430.97;;;26.33;32.39
6393;BME280;3229;42.674;23.282;2023-04-23T12:06:54;94431.16;;;26.26;32.44
6393;BME280;3229;42.674;23.282;2023-04-23T12:09:23;94436.63;;;26.25;32.82
6393;BME280;3229;42.674;23.282;2023-04-23T12:11:52;94435.53;;;26.21;32.57
6393;BME280;3229;42.674;23.282;2023-04-23T12:14:25;94422.97;;;26.23;32.33
6393;BME280;3229;42.674;23.282;2023-04-23T12:16:53;94425.06;;;26.21;32.19
6393;BME280;3229;42.674;23.282;2023-04-23T12:19:25;94429.75;;;26.19;32.77
6393;BME280;3229;42.674;23.282;2023-04-23T12:21:54;94424.44;;;26.14;32.52
6393;BME280;3229;42.674;23.282;2023-04-23T12:24:22;94422.47;;;26.04;32.58
6393;BME280;3229;42.674;23.282;2023-04-23T12:26:51;94415.22;;;25.94;32.87
6393;BME280;3229;42.674;23.282;2023-04-23T12:29:20;94406.50;;;25.89;32.82
6393;BME280;3229;42.674;23.282;2023-04-23T12:31:48;94409.91;;;25.89;32.49
6393;BME280;3229;42.674;23.282;2023-04-23T12:34:19;94412.94;;;25.81;32.54
6393;BME280;3229;42.674;23.282;2023-04-23T12:36:47;94416.50;;;25.75;32.57
6393;BME280;3229;42.674;23.282;2023-04-23T12:39:21;94411.91;;;25.65;32.86
6393;BME280;3229;42.674;23.282;2023-04-23T12:41:50;94408.69;;;25.63;32.57
6393;BME280;3229;42.674;23.282;2023-04-23T12:44:19;94406.56;;;25.60;32.57
6393;BME280;3229;42.674;23.282;2023-04-23T12:46:49;94395.53;;;25.58;32.76
6393;BME280;3229;42.674;23.282;2023-04-23T12:49:16;94402.53;;;25.52;32.94
6393;BME280;3229;42.674;23.282;2023-04-23T12:51:43;94408.78;;;25.51;32.81
6393;BME280;3229;42.674;23.282;2023-04-23T12:54:10;94404.25;;;25.47;32.63
6393;BME280;3229;42.674;23.282;2023-04-23T12:56:37;94402.91;;;25.44;32.68
6393;BME280;3229;42.674;23.282;2023-04-23T12:59:05;94407.81;;;25.41;32.96
6393;BME280;3229;42.674;23.282;2023-04-23T13:01:34;94400.44;;;25.38;32.90
6393;BME280;3229;42.674;23.282;2023-04-23T13:04:01;94404.88;;;25.37;32.85
6393;BME280;3229;42.674;23.282;2023-04-23T13:06:28;94398.84;;;25.37;32.91
6393;BME280;3229;42.674;23.282;2023-04-23T13:08:55;94398.59;;;25.38;32.81
6393;BME280;3229;42.674;23.282;2023-04-23T13:11:22;94401.34;;;25.43;32.82
6393;BME280;3229;42.674;23.282;2023-04-23T13:13:49;94392.66;;;25.43;32.55